Date,TemperatureHighF,TemperatureAvgF,TemperatureLowF,DewpointHighF,DewpointAvgF,DewpointLowF,HumidityHigh,HumidityAvg,HumidityLow,PressureMaxIn,PressureMinIn,WindSpeedMaxMPH,WindSpeedAvgMPH,GustSpeedMaxMPH,PrecipitationSumIn
2013-1-1,47.6,44.0,40.4,47.1,41.2,32.0,98,90,68,30.06,29.90,9,0,9,0.31
2013-1-2,49.9,46.0,41.6,46.8,43.0,34.9,98,89,76,30.12,29.86,4,0,10,0.05
2013-1-3,43.8,38.7,29.0,39.8,35.1,26.6,94,87,74,30.26,30.08,5,0,5,0.00
2013-1-4,51.4,37.9,27.3,30.5,24.8,20.5,91,62,33,30.32,30.18,13,1,13,0.00
2013-1-5,51.1,39.0,26.2,33.7,26.7,21.6,89,63,39,30.36,30.18,7,1,10,0.00
2013-1-6,56.7,44.0,36.8,42.4,36.8,30.1,94,77,56,30.18,29.99,11,1,11,0.02
2013-1-7,54.6,40.9,30.3,35.1,30.5,26.8,92,68,45,30.40,30.15,11,1,12,0.00
2013-1-8,53.9,40.0,27.0,43.6,34.6,24.7,94,82,60,30.45,30.32,10,0,10,0.00
2013-1-9,60.0,48.4,43.6,52.0,43.2,38.1,94,82,70,30.40,30.32,4,0,7,0.00
2013-1-10,66.5,55.0,46.0,52.9,46.9,38.4,98,76,55,30.46,30.31,7,0,7,0.00
2013-1-11,53.1,47.0,44.9,48.2,45.7,39.0,98,96,59,30.32,30.12,10,0,10,0.27
2013-1-12,68.2,56.3,48.6,64.4,55.1,48.1,100,96,83,30.13,30.03,7,0,7,0.00
2013-1-13,71.3,61.9,52.4,63.5,58.9,51.9,99,90,74,30.06,29.96,14,1,14,0.00
2013-1-14,63.6,61.7,55.2,63.2,61.0,54.3,99,98,93,30.08,29.97,12,0,12,0.52
2013-1-15,55.5,46.7,41.2,54.9,46.1,40.7,98,98,97,30.14,30.03,14,2,14,0.63
2013-1-16,49.9,45.6,41.5,49.3,45.1,41.0,99,98,97,30.04,29.91,4,0,4,0.32
2013-1-17,51.0,44.0,33.7,50.7,43.5,32.9,99,98,96,30.16,29.81,16,2,22,1.84
2013-1-18,50.6,38.2,29.9,34.1,29.7,26.5,98,73,43,30.49,30.16,16,1,16,0.07
2013-1-19,55.1,39.7,26.7,36.3,30.3,25.2,96,72,44,30.47,30.12,11,1,12,0.00
2013-1-20,61.7,45.3,29.8,38.3,31.6,27.1,92,63,34,30.12,29.98,17,1,17,0.00
2013-1-21,59.5,43.6,30.1,36.5,28.5,17.2,94,59,35,30.03,29.88,19,2,19,0.00
2013-1-22,38.4,33.1,27.8,17.6,8.6,0.9,53,37,21,30.22,29.96,19,4,20,0.00
2013-1-23,46.4,37.0,31.3,28.5,19.0,9.4,77,49,38,30.30,29.99,19,2,19,0.00
2013-1-24,44.1,37.6,24.8,31.0,18.1,8.0,77,47,26,30.48,29.92,19,2,19,0.00
2013-1-25,26.9,24.4,20.0,25.4,17.8,8.2,94,77,50,30.49,30.10,12,0,12,0.00
2013-1-26,43.7,32.5,23.6,37.6,29.9,22.2,96,90,70,30.35,30.08,5,0,5,0.08
2013-1-27,43.4,34.6,24.2,34.1,28.7,22.5,96,80,60,30.54,30.35,11,1,11,0.00
2013-1-28,55.2,43.7,35.9,47.6,38.7,31.4,95,83,70,30.43,30.19,6,1,13,0.00
2013-1-29,73.2,54.6,37.2,59.9,49.7,36.4,98,85,61,30.20,29.94,17,1,17,0.01
2013-1-30,67.2,61.8,50.4,62.9,60.0,48.5,98,94,85,29.94,29.35,21,3,21,1.60
2013-1-31,50.4,40.6,31.3,48.6,28.1,21.9,94,62,44,29.99,29.41,25,4,27,0.01
2013-2-1,40.2,33.0,23.6,31.8,16.6,8.7,73,52,35,30.35,29.84,23,3,25,0.00
2013-2-2,42.2,33.0,22.7,35.4,20.0,13.3,90,61,38,30.37,29.99,14,1,17,0.00
2013-2-3,49.2,40.8,35.2,34.7,29.2,22.3,91,64,46,29.99,29.82,26,4,26,0.00
2013-2-4,51.7,39.5,28.6,30.6,25.9,21.0,85,59,42,30.09,29.94,10,1,13,0.00
2013-2-5,61.7,45.4,31.7,40.9,33.5,27.4,92,65,41,29.94,29.84,14,1,14,0.00
2013-2-6,63.7,49.8,36.5,38.0,31.2,23.8,82,52,22,30.19,29.92,13,1,13,0.00
2013-2-7,43.5,40.5,38.7,39.5,34.6,26.9,97,80,59,30.27,30.00,9,1,10,0.38
2013-2-8,57.9,45.8,37.9,49.4,38.7,28.3,97,78,47,30.07,29.83,19,2,19,0.01
2013-2-9,60.4,43.1,31.4,30.6,26.8,23.8,84,56,27,30.31,30.06,13,1,13,0.00
2013-2-10,55.3,43.3,32.8,41.7,31.7,25.2,96,67,36,30.41,30.12,13,1,13,0.15
2013-2-11,59.0,50.6,41.6,56.8,45.4,30.6,98,85,40,30.13,29.90,13,1,13,0.04
2013-2-12,59.7,51.2,42.1,41.4,32.9,28.0,87,51,32,30.06,29.87,7,0,10,0.01
2013-2-13,44.7,42.5,41.8,42.8,41.3,40.7,97,95,87,29.90,29.70,4,0,4,0.23
2013-2-14,54.1,42.5,29.4,36.7,33.9,27.6,94,73,51,30.02,29.84,11,0,14,0.00
2013-2-15,54.7,34.6,29.1,42.3,31.6,27.6,96,89,63,30.07,30.01,6,0,7,0.00
2013-2-16,42.4,34.7,29.0,33.6,25.2,16.9,93,69,54,29.98,29.81,18,2,18,0.01
2013-2-17,40.2,32.2,25.5,17.9,13.1,9.0,65,46,33,30.23,29.97,18,3,19,0.00
2013-2-18,53.4,38.4,22.7,32.0,23.5,12.3,84,57,37,30.35,30.15,13,1,13,0.00
2013-2-19,53.4,42.8,36.0,45.7,32.3,18.6,100,69,36,30.16,29.81,21,2,21,0.09
2013-2-20,54.3,42.1,29.0,23.4,14.1,7.8,63,34,16,30.10,29.97,17,2,21,0.00
2013-2-21,60.2,42.7,25.6,39.5,23.5,13.2,92,50,25,30.21,30.04,11,1,11,0.07
2013-2-22,40.0,37.1,35.5,37.9,36.0,34.2,100,96,87,30.25,30.09,8,0,9,0.35
2013-2-23,49.8,41.7,35.6,45.6,40.0,34.8,98,94,84,30.12,29.80,5,0,5,0.18
2013-2-24,62.9,49.1,35.6,43.2,33.9,22.6,98,62,26,29.99,29.80,14,2,14,0.00
2013-2-25,44.2,39.3,35.6,31.1,29.0,26.5,81,67,57,30.16,29.97,13,2,13,0.00
2013-2-26,38.3,34.7,32.3,37.5,31.4,25.8,97,88,63,30.07,29.57,14,2,15,0.35
2013-2-27,58.7,47.6,34.1,42.2,38.5,33.6,98,72,52,29.76,29.62,21,1,21,0.00
2013-2-28,46.7,41.0,31.8,34.1,29.3,26.5,85,64,50,29.87,29.67,20,3,22,0.00
2013-3-1,46.1,38.7,30.6,32.5,30.2,27.3,92,72,54,29.90,29.83,13,1,13,0.00
2013-3-2,46.7,38.0,32.1,37.6,30.5,22.5,94,75,50,29.92,29.78,16,2,16,0.00
2013-3-3,43.2,33.5,25.3,24.0,20.4,17.7,79,60,42,29.99,29.88,17,2,17,0.00
2013-3-4,56.4,40.9,24.1,30.8,20.0,15.7,74,46,21,30.11,29.96,12,1,17,0.00
2013-3-5,43.5,39.8,36.8,41.2,33.6,26.1,97,80,52,30.01,29.59,11,0,11,0.44
2013-3-6,44.1,37.7,32.2,39.3,27.5,22.6,97,67,52,30.10,29.59,29,5,29,0.00
2013-3-7,54.9,38.4,27.6,33.7,27.7,-99.9,92,68,41,30.25,30.09,13,1,13,0.00
2013-3-8,55.1,40.3,24.9,30.2,26.7,21.6,92,61,34,30.31,30.19,14,1,16,0.00
2013-3-9,64.3,46.7,28.3,37.7,31.8,24.6,92,59,34,30.33,30.19,12,1,12,0.00
2013-3-10,66.8,52.3,37.2,43.1,37.6,32.6,92,60,37,30.26,30.11,18,1,18,0.00
2013-3-11,65.4,52.8,44.4,53.5,44.0,36.2,97,73,58,30.13,29.80,20,1,23,0.43
2013-3-12,64.5,54.2,44.4,55.1,44.9,30.4,98,74,40,29.94,29.67,13,2,15,0.56
2013-3-13,51.6,40.5,38.2,32.8,13.6,-99.9,79,44,38,30.12,29.91,22,-63,23,0.00
2013-3-14,53.1,41.7,30.7,24.7,12.6,-99.9,61,36,26,30.27,30.10,13,2,16,0.00
2013-3-15,67.0,40.1,36.1,42.5,-1.9,-99.9,64,35,38,30.17,29.82,15,-268,19,0.00
2013-3-16,82.4,52.0,50.8,53.0,10.6,-99.9,75,36,32,29.84,29.58,17,-243,19,0.00
2013-3-17,71.3,44.7,41.5,55.4,14.9,-99.9,92,56,54,30.07,29.76,19,-215,19,0.00
2013-3-18,41.6,25.5,37.7,38.9,-10.4,-99.9,97,62,90,30.11,29.83,10,-332,15,0.28
2013-3-19,61.7,35.3,41.3,42.3,-14.9,-99.9,98,27,26,30.03,29.80,23,-326,23,0.00
2013-3-20,59.2,46.4,36.4,29.0,20.3,15.2,65,36,23,30.08,29.76,15,1,16,0.00
2013-3-21,43.2,35.8,28.6,30.5,16.2,9.4,69,45,33,29.97,29.75,18,3,21,0.00
2013-3-22,52.4,42.3,22.2,29.9,22.7,15.5,77,47,31,30.07,29.93,9,1,12,0.00
2013-3-23,59.7,46.3,34.8,40.7,34.0,26.4,84,63,44,30.02,29.84,11,1,11,0.00
2013-3-24,46.4,41.3,37.0,42.8,39.6,36.0,99,94,84,29.88,29.52,12,2,13,0.47
2013-3-25,44.4,38.5,34.4,36.4,29.7,24.3,97,72,48,29.85,29.52,23,3,28,0.04
2013-3-26,44.5,37.6,29.8,29.0,26.6,24.0,83,65,51,30.16,29.85,16,2,16,0.00
2013-3-27,49.2,40.2,32.3,29.5,25.8,22.5,78,57,38,30.24,30.14,17,2,17,0.00
2013-3-28,57.3,41.8,28.6,30.1,25.8,22.4,83,55,31,30.28,30.16,16,1,16,0.00
2013-3-29,64.1,46.3,28.5,38.4,30.9,24.0,88,58,27,30.32,30.15,15,1,15,0.00
2013-3-30,66.8,53.6,41.5,44.6,40.1,34.7,88,63,39,30.19,29.99,12,1,12,0.00
2013-3-31,70.8,55.3,48.1,57.8,51.2,42.4,97,87,60,29.99,29.74,7,0,14,0.42
2013-4-1,68.8,56.8,44.5,53.1,44.9,38.1,98,68,40,29.90,29.77,20,2,20,0.01
2013-4-2,62.0,52.3,39.0,38.9,29.7,20.8,76,44,23,30.11,29.90,11,2,18,0.00
2013-4-3,63.9,51.0,38.8,35.8,27.3,20.8,62,40,27,30.24,30.08,12,1,12,0.00
2013-4-4,47.4,39.9,35.4,36.8,31.2,19.8,97,74,38,30.26,29.97,13,1,14,0.73
2013-4-5,66.0,50.2,37.6,49.1,40.1,34.4,98,73,32,30.02,29.87,15,1,15,0.00
2013-4-6,70.3,54.9,37.7,42.9,39.0,35.0,92,59,33,30.19,30.01,14,2,14,0.00
2013-4-7,72.1,64.0,45.2,50.4,47.1,39.5,83,55,44,30.18,30.03,14,2,19,0.00
2013-4-8,78.5,68.7,48.7,60.2,54.2,45.2,92,61,44,30.11,29.97,19,2,19,0.00
2013-4-9,84.2,69.4,53.3,61.6,55.8,49.5,89,64,42,30.12,29.99,13,1,15,0.00
2013-4-10,86.5,75.2,57.6,63.8,59.6,53.8,87,60,43,30.02,29.85,17,2,17,0.00
2013-4-11,81.1,70.2,59.0,65.7,60.8,56.2,95,74,50,29.89,29.64,18,2,22,0.00
2013-4-12,84.0,69.0,58.2,66.4,56.4,39.9,97,69,36,29.76,29.54,14,3,20,1.07
2013-4-13,77.1,62.0,44.9,46.0,40.0,34.5,84,48,23,29.98,29.75,19,2,19,0.00
2013-4-14,77.0,61.2,43.9,54.1,45.8,38.3,87,60,34,30.04,29.91,13,1,13,0.00
2013-4-15,60.5,56.9,54.1,57.6,55.2,51.9,100,94,77,30.16,29.92,10,0,10,0.32
2013-4-16,81.2,66.4,56.8,64.6,59.1,55.7,97,79,53,30.24,30.10,12,1,12,0.00
2013-4-17,77.7,66.8,58.4,65.8,61.1,56.4,94,83,61,30.17,30.03,7,0,9,0.00
2013-4-18,79.3,67.9,58.0,64.6,61.0,56.9,97,80,53,30.09,29.88,13,1,13,0.02
2013-4-19,67.9,64.1,51.6,66.4,61.4,40.7,97,91,66,29.89,29.63,13,1,15,0.57
2013-4-20,69.8,53.8,42.5,42.4,36.2,30.9,75,53,30,30.23,29.85,12,1,18,0.00
2013-4-21,63.7,51.7,39.1,42.5,38.7,35.1,90,63,42,30.42,30.22,16,2,16,0.00
2013-4-22,66.8,52.4,41.9,42.2,38.2,33.1,88,61,36,30.41,30.19,15,2,16,0.00
2013-4-23,74.3,56.6,42.5,51.8,44.9,35.8,85,67,43,30.24,30.04,12,1,12,0.00
2013-4-24,74.2,62.5,50.7,60.7,54.9,48.9,94,77,60,30.07,29.91,18,1,21,0.00
2013-4-25,76.3,60.4,47.0,57.4,41.9,30.4,90,54,22,30.25,29.96,11,1,11,0.00
2013-4-26,72.0,57.9,42.3,48.7,40.5,35.0,84,55,31,30.39,30.24,15,1,15,0.00
2013-4-27,64.8,56.3,53.1,56.9,52.4,47.2,97,87,69,30.30,30.19,8,0,9,0.15
2013-4-28,54.5,53.4,52.3,53.9,52.8,51.8,98,98,97,30.20,29.99,10,0,10,1.43
2013-4-29,75.0,61.0,53.5,63.1,57.5,52.9,99,89,64,30.02,29.87,12,1,12,0.09
2013-4-30,73.2,63.0,57.7,63.1,58.9,55.8,98,87,67,30.13,29.92,12,1,12,0.00
2013-5-1,67.0,59.9,52.4,57.9,55.6,51.6,98,86,70,30.25,30.12,16,1,17,0.00
2013-5-2,61.4,57.1,52.5,57.2,54.7,51.6,97,92,84,30.27,30.19,12,0,12,0.20
2013-5-3,64.7,58.7,53.9,55.0,52.9,49.7,97,82,68,30.21,30.06,14,2,14,0.00
2013-5-4,62.3,54.0,49.0,51.3,47.4,43.6,94,79,66,30.09,29.96,18,3,20,0.04
2013-5-5,55.7,50.0,47.3,55.1,48.9,45.7,98,96,91,30.03,29.81,12,2,20,1.78
2013-5-6,70.7,59.1,50.5,61.1,53.9,47.5,99,85,47,29.85,29.75,22,2,29,1.14
2013-5-7,72.3,56.4,46.0,58.6,51.5,45.2,98,86,49,29.89,29.80,11,0,11,0.19
2013-5-8,75.0,60.8,50.3,61.9,56.0,49.8,98,85,59,29.95,29.84,10,0,10,0.06
2013-5-9,85.1,66.9,51.4,62.3,57.2,50.3,98,74,42,30.02,29.94,11,0,11,0.00
2013-5-10,84.3,69.6,54.7,65.7,60.3,53.7,97,75,50,30.00,29.86,16,1,16,0.00
2013-5-11,79.2,68.5,61.0,66.1,62.3,59.7,97,82,58,29.87,29.72,16,0,16,0.29
2013-5-12,72.0,61.0,49.6,60.6,47.9,37.3,100,67,32,29.99,29.78,16,1,16,0.02
2013-5-13,72.0,56.0,41.5,41.9,38.5,34.2,92,56,28,30.13,29.99,10,0,11,0.00
2013-5-14,74.9,59.0,41.3,51.2,44.6,37.6,90,62,39,30.21,29.99,15,1,15,0.00
2013-5-15,95.4,73.2,51.1,68.0,59.2,49.1,94,65,34,30.00,29.85,7,0,16,0.00
2013-5-16,72.2,68.8,66.1,62.2,58.9,55.3,83,71,57,29.87,29.83,11,0,11,0.00
2013-5-17,87.7,78.1,60.0,66.7,63.1,56.4,95,62,45,30.01,29.92,10,0,10,0.00
2013-5-18,72.0,65.8,61.2,68.5,63.9,59.9,98,94,81,30.09,29.98,10,0,10,0.31
2013-5-19,78.4,69.1,64.5,71.3,66.6,63.9,99,92,77,30.05,29.94,9,0,12,0.15
2013-5-20,86.6,71.6,65.4,72.4,67.6,64.6,98,88,58,30.07,29.93,6,0,9,0.25
2013-5-21,90.2,74.4,61.1,73.3,67.5,60.5,99,81,53,29.98,29.85,10,0,13,0.00
2013-5-22,86.0,71.3,63.6,73.0,66.4,61.9,98,86,54,29.92,29.83,13,1,16,0.46
2013-5-23,83.5,71.4,61.8,70.9,65.4,58.0,99,82,64,29.90,29.75,12,1,12,0.19
2013-5-24,71.3,64.3,55.0,58.8,49.6,40.5,90,61,35,30.16,29.80,21,1,22,0.00
2013-5-25,82.0,63.4,45.9,51.8,45.5,40.1,86,55,30,30.25,30.09,11,0,11,0.00
2013-5-26,78.4,62.8,54.0,57.2,52.7,45.2,89,71,45,30.24,30.10,3,0,11,0.00
2013-5-27,83.8,68.2,52.1,63.5,57.7,51.0,97,72,46,30.22,30.05,12,1,12,0.00
2013-5-28,84.8,72.8,62.2,69.2,64.0,59.9,94,75,56,30.14,30.06,17,1,17,0.00
2013-5-29,87.8,73.9,61.4,70.2,64.2,59.1,93,74,49,30.16,30.08,7,1,12,0.00
2013-5-30,87.9,73.7,61.3,69.4,64.4,60.0,97,75,49,30.20,30.09,9,0,10,0.00
2013-5-31,86.7,73.8,60.5,69.7,64.8,59.3,97,76,52,30.15,30.02,12,1,12,0.00
2013-6-1,86.3,76.1,66.8,69.7,67.0,65.0,96,75,55,30.04,29.92,15,1,15,0.00
2013-6-2,78.7,70.9,66.1,73.9,67.5,65.0,98,89,76,29.96,29.84,11,0,11,1.10
2013-6-3,90.5,73.3,65.6,73.3,68.0,65.0,99,85,51,29.89,29.74,11,0,13,0.00
2013-6-4,83.8,71.8,64.2,69.2,65.9,63.6,98,83,59,30.02,29.88,10,0,10,0.08
2013-6-5,74.2,68.3,65.2,69.0,65.7,63.1,98,91,83,30.05,29.92,7,0,9,0.99
2013-6-6,78.7,70.8,65.6,74.5,69.1,65.0,99,95,83,29.93,29.71,11,0,12,1.07
2013-6-7,83.5,71.2,64.4,73.9,68.4,63.4,99,92,68,29.78,29.58,7,0,9,0.24
2013-6-8,86.8,73.3,63.4,72.0,67.4,62.8,98,83,59,30.00,29.75,7,0,12,0.00
2013-6-9,88.3,72.7,64.2,74.5,68.6,63.3,98,88,59,30.07,29.96,17,0,19,0.38
2013-6-10,78.7,71.1,66.8,73.5,69.0,64.7,98,93,76,30.00,29.80,16,1,19,0.62
2013-6-11,89.0,74.9,64.3,69.6,66.3,63.1,99,77,48,29.92,29.85,11,0,11,0.04
2013-6-12,93.4,78.4,62.6,79.8,71.1,61.4,97,80,58,29.93,29.79,3,0,9,0.00
2013-6-13,96.8,76.2,68.6,76.7,69.5,64.9,96,81,50,29.80,29.57,21,1,23,0.15
2013-6-14,84.5,72.2,59.0,65.9,59.0,55.6,91,66,41,29.88,29.70,17,1,17,0.01
2013-6-15,89.9,72.4,56.7,66.7,62.6,54.9,94,73,44,30.08,29.97,4,0,9,0.00
2013-6-16,89.3,76.5,63.9,71.2,66.0,60.7,92,71,51,30.05,29.93,14,1,14,0.00
2013-6-17,88.6,74.3,67.7,75.6,70.0,66.2,98,87,61,29.95,29.86,13,0,14,0.34
2013-6-18,78.7,71.8,68.1,74.1,70.0,67.5,98,94,82,29.88,29.72,12,0,12,0.34
2013-6-19,84.5,72.8,62.5,69.1,66.1,61.8,98,82,57,30.05,29.84,7,0,10,0.01
2013-6-20,79.2,68.6,63.8,69.5,65.8,62.9,98,91,69,30.17,30.04,9,0,9,0.00
2013-6-21,90.6,75.0,62.5,68.7,65.3,61.6,100,75,45,30.21,30.10,10,1,11,0.00
2013-6-22,91.6,73.7,59.1,68.3,65.3,58.0,97,78,44,30.16,30.04,1,0,10,0.00
2013-6-23,93.8,76.4,64.0,73.3,68.7,62.8,98,79,47,30.14,30.03,11,0,11,0.04
2013-6-24,88.8,70.8,66.0,75.7,68.9,65.7,99,94,62,30.14,30.03,11,0,11,0.47
2013-6-25,91.3,76.4,66.0,77.4,71.0,65.7,99,85,58,30.08,29.90,13,0,13,0.01
2013-6-26,93.0,75.0,66.3,77.1,69.7,65.4,98,85,56,29.95,29.83,6,0,11,0.01
2013-6-27,76.7,75.9,75.1,69.3,69.2,69.2,82,80,78,29.77,29.76,0,0,3,0.00
2013-6-28,71.1,70.9,70.6,69.5,69.0,68.5,95,94,93,29.58,29.57,4,0,4,0.01
2013-6-29,91.8,77.3,64.5,73.4,68.8,63.3,97,77,47,29.63,29.53,11,0,11,0.06
2013-6-30,87.5,73.6,66.0,73.4,69.2,65.4,98,88,59,29.79,29.60,14,1,14,0.28
2013-7-1,81.5,72.9,66.0,74.6,69.5,65.4,99,90,71,29.93,29.74,15,1,15,0.14
2013-7-2,82.1,72.2,67.5,73.9,70.2,66.4,99,94,74,30.08,29.88,11,1,11,0.12
2013-7-3,79.2,72.6,67.7,74.7,70.9,67.3,99,95,80,30.15,30.04,15,1,15,0.30
2013-7-4,84.7,73.3,67.2,76.9,70.7,66.6,99,92,73,30.18,30.05,15,1,17,0.53
2013-7-5,87.6,73.5,67.9,76.8,71.2,67.3,99,93,67,30.17,30.10,13,0,13,0.17
2013-7-6,87.3,75.6,68.1,75.5,71.5,67.5,99,88,64,30.17,30.03,15,1,19,0.70
2013-7-7,84.3,76.1,71.3,77.2,73.2,69.8,99,91,76,30.10,29.99,16,1,16,0.02
2013-7-8,91.3,77.5,69.3,75.1,71.9,68.7,98,84,54,30.11,30.01,2,0,9,0.02
2013-7-9,94.3,79.9,69.3,76.6,72.4,68.7,99,80,49,30.08,29.96,5,0,9,0.02
2013-7-10,85.6,74.7,70.8,76.4,72.1,69.7,98,92,73,30.03,29.88,6,0,14,0.02
2013-7-11,84.5,77.2,68.2,76.1,73.2,67.3,98,88,75,29.89,29.79,11,0,11,0.00
2013-7-12,84.1,74.2,67.5,74.1,69.6,65.4,98,86,66,29.98,29.80,12,1,12,0.00
2013-7-13,80.5,72.4,67.5,72.4,68.8,65.3,98,89,75,30.10,29.95,14,1,17,0.07
2013-7-14,85.5,75.0,68.2,76.2,71.7,67.6,99,90,68,30.23,30.03,13,2,17,0.02
2013-7-15,92.3,77.4,68.1,75.0,70.9,67.5,99,83,54,30.27,30.17,7,0,9,0.02
2013-7-16,100.2,80.3,68.6,75.8,71.4,67.6,97,77,46,30.24,30.13,6,0,6,0.00
2013-7-17,99.7,78.6,68.6,78.9,72.1,66.5,97,83,48,30.18,30.03,17,0,17,0.62
2013-7-18,94.8,78.8,68.6,79.2,72.8,67.2,98,83,55,30.10,29.97,14,0,14,0.01
2013-7-19,93.4,80.1,69.2,78.0,73.7,68.5,99,82,57,30.03,29.90,14,1,14,0.01
2013-7-20,82.0,74.4,71.7,76.6,72.7,70.8,98,95,84,29.95,29.90,7,0,7,0.00
2013-7-21,88.9,73.8,67.5,77.8,72.3,67.2,99,95,69,29.94,29.84,5,0,9,0.21
2013-7-22,89.2,76.6,66.8,77.3,72.1,66.2,99,87,63,29.91,29.73,10,0,13,0.15
2013-7-23,91.2,76.2,66.7,74.4,70.2,66.1,99,84,51,29.79,29.72,8,0,9,0.16
2013-7-24,95.6,80.1,67.0,75.8,70.9,66.4,98,75,50,29.83,29.68,6,0,7,0.10
2013-7-25,87.4,73.7,66.8,71.8,68.5,66.2,98,85,58,29.99,29.77,14,1,14,0.12
2013-7-26,85.8,74.3,66.8,75.5,70.0,66.2,99,87,65,30.04,29.90,10,1,10,0.04
2013-7-27,81.0,71.5,67.1,75.0,69.6,66.5,99,94,76,29.95,29.84,11,0,11,0.13
2013-7-28,74.7,69.7,68.7,70.8,68.7,68.1,98,97,86,29.90,29.84,7,0,7,0.13
2013-7-29,88.4,80.9,69.0,70.7,67.9,62.9,89,66,51,30.10,29.99,9,1,10,0.00
2013-7-30,69.1,68.6,67.4,63.6,63.1,62.3,85,83,81,30.10,30.09,0,0,0,0.00
2013-7-31,85.0,72.3,68.1,75.8,70.4,67.8,99,94,65,29.99,29.82,1,0,9,0.26
2013-8-1,88.6,76.2,66.6,76.2,70.2,65.5,97,83,57,29.96,29.80,1,0,9,0.00
2013-8-2,86.5,74.6,68.7,72.6,71.0,68.1,98,89,61,29.95,29.90,0,0,5,0.00
2013-8-3,90.7,77.8,68.1,76.7,70.9,66.5,99,81,54,29.95,29.85,5,0,11,0.01
2013-8-4,92.0,77.0,65.9,72.7,67.6,63.1,97,75,44,29.97,29.85,10,0,10,0.01
2013-8-5,85.3,74.4,65.5,73.6,67.8,62.8,98,81,63,30.02,29.89,11,0,13,0.07
2013-8-6,78.0,71.8,67.4,72.8,69.4,66.5,98,92,81,29.99,29.89,12,1,12,0.09
2013-8-7,79.4,73.0,69.2,74.8,71.3,68.6,99,95,81,30.02,29.95,9,0,9,0.01
2013-8-8,88.8,77.2,70.2,77.6,73.2,69.6,99,88,68,29.99,29.91,13,0,13,0.01
2013-8-9,93.8,78.0,70.4,79.5,73.9,69.8,99,88,61,29.99,29.91,11,0,16,0.04
2013-8-10,92.7,75.7,68.2,79.9,72.6,67.9,99,91,61,30.05,29.94,9,0,9,0.14
2013-8-11,93.1,77.4,68.1,78.3,72.6,67.8,100,86,59,30.07,29.95,11,0,11,0.15
2013-8-12,94.8,78.0,69.8,79.0,72.8,69.2,99,86,54,30.00,29.81,7,0,7,0.05
2013-8-13,91.8,76.5,69.8,78.0,72.7,68.5,99,89,58,29.88,29.72,13,0,13,0.07
2013-8-14,78.6,67.2,65.2,65.4,63.5,63.0,94,89,64,30.02,29.89,2,0,9,0.00
2013-8-15,74.6,68.0,59.0,63.5,60.8,57.9,96,79,62,30.10,30.02,7,0,7,0.00
2013-8-16,77.7,65.6,58.4,63.6,60.2,57.6,97,84,60,30.13,30.04,12,0,12,0.00
2013-8-17,68.1,63.1,59.0,63.7,61.2,57.9,98,94,80,30.16,30.09,7,0,7,0.13
2013-8-18,78.7,68.4,63.1,71.3,66.5,62.5,100,94,76,30.17,30.07,5,0,5,0.01
2013-8-19,76.7,69.7,67.0,70.9,68.2,66.4,99,95,79,30.13,30.02,5,0,5,0.08
2013-8-20,83.0,71.1,63.6,73.0,68.4,63.3,99,92,71,30.14,30.05,7,0,7,0.08
2013-8-21,84.5,72.4,66.9,77.2,70.8,66.3,99,95,77,30.18,30.04,6,0,6,0.01
2013-8-22,92.7,78.0,67.1,76.1,71.4,66.7,99,82,52,30.09,29.92,7,0,7,0.02
2013-8-23,89.2,74.7,66.4,74.0,69.8,65.8,99,86,56,30.02,29.91,14,0,14,0.00
2013-8-24,85.8,71.8,60.7,66.7,62.2,58.5,95,74,45,30.25,30.02,12,1,12,0.00
2013-8-25,85.4,69.0,59.0,67.5,61.5,57.3,96,79,50,30.34,30.22,10,0,10,0.00
2013-8-26,88.8,71.0,57.7,69.3,64.0,56.8,100,81,49,30.27,30.05,10,0,10,0.00
2013-8-27,90.0,71.0,60.8,74.2,66.6,60.2,99,87,57,30.07,29.92,6,0,7,0.00
2013-8-28,91.8,78.5,67.7,76.7,71.6,66.0,96,81,59,29.94,29.83,7,0,7,0.00
2013-8-29,96.7,81.5,72.6,75.8,72.5,69.4,96,76,47,29.92,29.80,12,1,12,0.02
2013-8-30,87.3,77.0,70.7,73.8,71.5,69.9,98,84,62,29.99,29.86,7,0,7,0.04
2013-8-31,90.8,75.1,67.6,77.3,71.3,66.8,98,89,59,29.88,29.80,10,0,10,0.28
2013-9-1,90.5,73.2,67.3,78.6,70.4,67.0,99,92,65,29.84,29.70,16,0,16,0.43
2013-9-2,92.2,76.3,65.2,76.3,71.3,64.9,100,86,56,29.84,29.73,7,0,7,0.44
2013-9-3,89.0,76.1,67.6,72.3,68.9,65.8,98,80,52,29.91,29.74,9,0,9,0.00
2013-9-4,89.5,73.7,61.7,71.0,66.5,60.8,98,80,53,30.03,29.90,9,0,9,0.00
2013-9-5,90.5,74.6,65.2,69.7,65.8,61.0,97,77,41,30.06,29.99,5,0,5,0.00
2013-9-6,86.5,72.3,60.9,67.6,63.9,59.5,96,77,52,30.14,30.01,10,0,10,0.00
2013-9-7,86.3,71.2,59.3,70.0,64.9,58.4,97,82,57,30.09,29.92,9,0,9,0.00
2013-9-8,91.3,73.9,61.6,72.7,66.8,60.7,99,81,48,29.93,29.86,4,0,7,0.00
2013-9-9,89.0,75.9,67.5,74.2,69.0,65.7,98,81,56,30.08,29.93,12,1,12,0.00
2013-9-10,91.0,75.8,65.4,75.4,69.0,64.5,99,82,52,30.17,30.07,9,0,9,0.00
2013-9-11,91.4,76.0,64.9,74.7,70.3,64.3,99,84,56,30.15,30.00,10,0,10,0.00
2013-9-12,92.0,76.0,67.4,74.1,70.3,66.8,98,84,52,30.00,29.76,11,0,11,0.00
2013-9-13,84.2,74.0,60.7,67.2,59.9,53.1,87,63,45,29.86,29.73,12,0,12,0.00
2013-9-14,80.7,64.1,54.2,59.7,55.0,51.0,94,74,47,30.07,29.86,12,0,12,0.00
2013-9-15,79.8,65.6,54.1,66.1,59.9,52.9,98,83,61,30.17,30.06,9,0,9,0.00
2013-9-16,87.7,71.4,59.5,69.2,63.1,58.6,98,78,48,30.11,29.99,12,0,12,0.01
2013-9-17,73.3,66.9,60.1,62.4,58.4,56.2,91,75,59,30.26,30.11,13,1,13,0.00
2013-9-18,72.5,64.3,57.5,61.3,57.8,53.7,91,80,65,30.26,30.11,7,0,7,0.00
2013-9-19,82.8,68.8,61.6,69.7,63.8,59.3,98,85,62,30.13,30.01,9,0,9,0.10
2013-9-20,89.5,72.3,61.4,72.4,66.6,60.8,99,84,53,30.02,29.84,7,0,7,0.10
2013-9-21,69.9,67.5,63.1,68.9,66.5,62.8,99,97,92,29.86,29.65,12,0,12,0.82
2013-9-22,81.0,65.9,55.2,62.8,58.8,54.9,99,81,43,29.86,29.67,10,0,10,0.83
2013-9-23,75.0,62.7,54.9,61.5,57.0,53.3,97,83,58,30.03,29.85,10,0,10,0.00
2013-9-24,81.6,67.4,58.4,64.2,60.5,57.2,100,81,53,30.03,29.87,10,0,10,0.00
2013-9-25,65.7,62.0,57.7,64.2,60.8,57.1,98,96,92,29.86,29.82,5,0,5,0.12
2013-9-26,79.5,64.3,56.0,63.1,57.9,51.7,99,83,38,30.00,29.83,12,0,12,0.12
2013-9-27,79.2,64.6,53.6,61.3,57.3,52.8,98,79,51,30.12,30.00,13,1,13,0.00
2013-9-28,74.3,62.5,55.4,59.3,56.6,53.3,99,82,57,30.21,30.11,10,0,10,0.00
2013-9-29,75.3,62.3,52.7,60.7,56.6,51.3,96,83,60,30.14,29.97,9,0,9,0.00
2013-9-30,80.4,66.0,56.3,62.4,58.8,55.2,97,80,49,30.05,29.93,7,0,8,0.00
2013-10-1,82.5,67.4,54.4,64.5,60.4,53.3,98,80,51,30.08,29.97,7,0,7,0.00
2013-10-2,87.0,69.3,59.0,66.1,61.9,57.3,95,79,47,30.10,29.99,7,0,7,0.00
2013-10-3,83.8,69.9,60.2,69.2,63.4,58.8,97,82,55,30.08,29.99,7,0,8,0.00
2013-10-4,88.8,70.2,58.8,68.2,63.6,58.0,98,82,48,30.09,30.00,7,0,7,0.00
2013-10-5,89.3,72.2,61.9,69.7,65.2,60.8,98,81,49,30.08,29.96,10,0,10,0.00
2013-10-6,83.0,69.4,59.0,69.5,63.9,58.4,99,84,59,29.99,29.81,13,1,13,0.00
2013-10-7,74.8,65.8,54.0,69.3,62.3,52.6,99,89,69,29.97,29.73,12,0,12,1.05
2013-10-8,72.0,58.8,51.0,55.0,51.2,48.3,97,77,53,30.18,29.96,16,1,16,0.00
2013-10-9,75.4,58.8,48.5,51.6,48.3,44.7,91,71,37,30.20,30.07,14,0,14,0.00
2013-10-10,76.2,61.0,46.4,63.1,53.9,44.9,97,79,50,30.10,29.91,7,0,7,0.00
2013-10-11,80.8,67.6,57.9,61.5,56.9,53.5,90,70,49,29.95,29.84,12,0,12,0.00
2013-10-12,75.2,65.5,57.6,64.2,59.9,54.0,93,83,66,30.03,29.90,5,0,5,0.00
2013-10-13,74.5,66.4,61.2,65.8,62.6,60.6,98,88,71,30.16,30.03,12,1,12,0.11
2013-10-14,70.3,64.0,59.0,62.9,60.4,57.0,97,88,74,30.20,30.09,12,0,12,0.01
2013-10-15,76.7,63.6,57.2,60.1,56.8,54.6,94,80,49,30.16,29.99,11,0,11,0.00
2013-10-16,72.7,62.6,52.1,62.1,57.8,51.3,98,85,65,30.04,29.90,7,0,7,0.00
2013-10-17,71.2,62.7,59.0,66.9,61.4,58.2,98,96,85,29.91,29.78,8,0,8,0.04
2013-10-18,70.8,59.3,49.2,58.6,55.2,48.7,99,88,64,29.98,29.84,13,0,13,0.04
2013-10-19,59.9,55.2,51.2,59.5,54.5,49.3,99,98,93,29.91,29.84,4,0,4,0.01
2013-10-20,67.3,53.5,45.2,49.6,46.0,41.6,96,78,48,30.06,29.89,10,0,10,0.01
2013-10-21,63.9,48.2,42.4,53.3,46.0,41.3,97,92,68,30.12,29.93,5,0,5,0.00
2013-10-22,56.4,53.3,52.4,55.3,52.3,51.1,98,96,95,29.95,29.89,3,0,3,0.01
2013-10-24,51.5,39.0,28.4,35.2,31.1,26.4,94,76,49,30.37,30.29,2,0,11,0.00
2013-10-25,57.9,48.6,39.9,45.3,38.8,34.2,95,71,46,30.28,30.01,3,1,17,0.00
2013-10-26,70.4,58.1,49.2,51.5,49.3,45.4,95,75,51,30.10,29.98,3,1,11,0.00
2013-10-27,59.9,56.1,51.2,50.7,50.0,48.3,92,80,71,30.06,30.02,5,0,5,0.00
2013-10-28,64.8,56.0,49.1,58.7,53.0,47.3,96,90,76,30.21,30.05,5,0,5,0.00
2013-10-29,71.7,58.1,46.7,58.0,53.0,45.9,98,85,61,30.29,30.18,9,0,9,0.00
2013-10-30,79.3,63.6,53.5,62.2,56.9,51.8,96,81,53,30.23,30.08,12,0,12,0.00
2013-10-31,67.7,60.7,54.0,63.2,57.4,52.9,98,89,72,30.10,29.80,11,0,11,0.01
2013-11-1,66.7,64.0,55.9,64.3,61.3,55.3,98,91,83,29.80,29.66,14,1,14,0.06
2013-11-2,68.5,55.6,44.8,55.1,45.6,38.5,98,72,42,29.93,29.65,6,0,20,0.07
2013-11-3,63.2,48.7,38.2,42.2,38.7,35.8,94,71,40,30.32,29.93,11,0,11,0.00
2013-11-4,58.7,46.0,37.3,37.7,35.3,31.3,92,69,39,30.50,30.32,13,1,13,0.00
2013-11-5,58.2,46.8,35.8,49.5,41.0,32.2,97,81,63,30.56,30.39,7,0,7,0.04
2013-11-6,67.0,54.6,49.2,56.7,51.7,48.1,98,91,68,30.39,30.08,3,0,4,0.04
2013-11-7,67.9,52.5,39.6,60.1,46.2,34.2,98,81,52,30.11,29.92,14,1,21,0.00
2013-11-8,59.0,44.9,33.5,35.8,31.0,26.2,92,62,29,30.28,30.11,6,0,11,0.00
2013-11-9,58.3,42.5,30.6,35.7,31.1,27.3,92,67,39,30.36,30.21,12,1,12,0.00
2013-11-10,62.8,50.9,43.9,37.8,35.2,31.6,71,56,36,30.19,30.12,5,0,5,0.00
2013-11-11,63.4,47.0,32.0,35.9,30.9,26.9,85,57,29,30.33,30.09,10,0,10,0.00
2013-11-12,61.2,42.8,29.2,41.9,31.1,18.3,85,64,41,30.44,30.01,20,2,20,0.00
2013-11-13,51.6,35.2,23.2,27.9,20.7,17.4,87,58,31,30.52,30.42,9,0,9,0.00
2013-11-14,59.9,44.7,25.6,29.4,25.2,20.8,88,50,30,30.44,30.28,11,1,11,0.00
2013-11-15,57.0,44.4,29.7,46.3,34.2,23.4,96,70,42,30.32,30.17,5,0,5,0.18
2013-11-16,57.7,52.1,46.9,54.2,50.4,45.8,98,94,87,30.25,30.15,2,0,3,0.18
2013-11-17,61.1,56.6,53.4,58.8,55.3,51.8,99,96,90,30.17,29.82,5,0,5,0.33
2013-11-18,70.3,60.3,49.6,60.8,47.5,33.0,99,67,35,29.96,29.76,18,2,18,0.34
2013-11-19,57.4,46.0,35.9,34.6,30.6,26.1,86,57,34,30.24,29.96,11,1,11,0.00
2013-11-20,51.7,42.0,34.8,35.2,32.5,29.3,88,70,50,30.43,30.23,12,1,12,0.00
2013-11-21,54.3,47.5,40.4,47.5,41.0,33.1,95,78,71,30.48,30.34,7,0,7,0.00
2013-11-22,63.9,55.1,48.4,59.2,53.3,47.2,98,94,83,30.37,30.05,10,0,10,0.03
2013-11-23,57.7,52.2,39.8,56.1,42.5,21.4,98,72,40,30.18,30.02,20,2,20,0.00
2013-11-24,41.5,33.6,25.0,25.2,15.9,8.9,80,49,27,30.50,30.18,14,2,14,0.00
2013-11-25,38.5,31.3,21.7,27.5,16.9,11.9,82,56,37,30.54,30.31,10,0,10,0.00
2013-11-26,43.1,36.7,32.3,42.6,34.9,24.7,98,94,64,30.32,29.60,5,1,11,1.92
2013-11-27,43.7,36.8,28.7,43.2,31.1,18.5,98,81,60,30.18,29.52,24,3,24,0.01
2013-11-28,47.4,32.6,20.6,27.9,22.9,17.3,93,69,42,30.44,30.18,9,1,9,0.01
2013-11-29,54.9,37.8,25.2,31.3,27.4,22.6,94,70,37,30.58,30.43,10,1,10,0.00
2013-11-30,46.4,35.2,28.1,29.5,26.7,24.1,89,72,49,30.64,30.35,11,1,11,0.00
2013-12-1,59.0,40.5,27.1,39.1,31.9,24.1,93,73,46,30.35,29.99,10,0,10,0.00
2013-12-2,59.1,45.2,31.5,42.1,36.9,29.6,96,74,49,29.99,29.78,10,1,10,0.00
2013-12-3,58.9,50.7,42.7,51.8,46.7,38.3,97,86,75,29.91,29.81,12,0,12,0.00
2013-12-4,56.8,54.0,51.3,56.0,53.5,50.8,99,98,97,30.02,29.90,4,0,4,0.01
2013-12-5,65.3,61.1,56.2,65.0,60.8,55.9,100,99,98,30.05,29.92,13,1,13,0.25
2013-12-6,72.9,67.7,60.2,67.1,64.8,59.3,99,91,81,29.95,29.86,19,2,19,0.31
2013-12-7,60.2,52.8,42.1,59.2,48.3,37.9,99,85,72,30.38,29.91,15,2,15,0.01
2013-12-8,42.5,36.2,33.3,38.8,34.7,32.4,97,94,85,30.40,30.23,13,1,13,0.05
2013-12-9,43.2,38.8,33.5,42.7,38.1,32.7,98,98,97,30.25,30.01,6,0,6,0.03
2013-12-10,52.4,42.0,29.2,48.2,37.6,24.8,99,86,55,30.29,29.88,16,1,16,0.27
2013-12-11,51.9,38.3,26.1,33.1,26.8,21.1,90,65,42,30.43,30.24,11,1,11,0.00
2013-12-12,47.6,38.9,29.3,26.7,20.6,15.3,78,49,32,30.38,30.25,10,1,10,0.00
2013-12-13,50.7,36.9,23.5,33.7,24.6,18.4,89,64,36,30.35,30.21,12,0,12,0.00
2013-12-14,40.4,38.1,36.2,38.2,35.2,30.4,98,90,74,30.23,29.76,9,0,9,0.50
2013-12-15,49.2,39.9,29.6,42.3,34.6,26.8,98,83,58,30.07,29.71,13,1,13,0.50
2013-12-16,62.2,44.0,28.5,38.8,33.0,26.2,94,68,38,30.13,30.01,10,0,10,0.00
2013-12-17,62.7,47.5,31.3,40.7,35.1,25.9,94,65,43,30.08,29.86,19,2,19,0.00
2013-12-18,51.0,40.1,32.4,26.7,21.9,15.1,77,50,25,30.25,30.00,12,1,12,0.00
2013-12-19,62.8,44.8,28.1,33.8,27.6,19.8,84,54,31,30.29,30.14,17,1,17,0.00
2013-12-20,61.4,49.3,36.4,48.2,40.2,30.7,88,72,53,30.20,30.07,13,0,13,0.00
2013-12-21,63.7,56.1,45.0,61.6,53.5,42.8,96,91,84,30.09,29.92,11,0,11,0.00
2013-12-22,66.0,62.1,58.5,64.6,61.2,57.9,99,97,92,30.00,29.89,12,1,12,1.50
2013-12-23,62.2,55.1,41.2,61.9,52.4,36.5,99,91,74,30.15,29.91,10,0,10,2.11
2013-12-24,43.2,36.3,26.7,37.9,27.5,19.4,93,71,49,30.43,30.13,16,2,16,0.00
2013-12-25,41.1,29.1,20.7,24.7,18.0,11.6,92,66,34,30.54,30.35,10,0,10,0.00
2013-12-26,56.7,35.2,22.2,33.1,25.5,18.5,92,71,37,30.36,30.21,6,0,6,0.00
2013-12-27,53.6,37.5,26.6,30.7,27.1,23.3,94,69,37,30.46,30.32,5,0,6,0.00
2013-12-28,52.4,44.6,29.8,41.8,37.7,24.6,96,79,52,30.38,30.11,4,0,4,0.10
2013-12-29,59.0,44.2,39.5,50.7,41.3,36.6,98,90,67,30.10,29.72,15,1,15,0.59
2013-12-30,52.3,42.2,34.4,43.8,38.2,32.9,96,86,68,30.09,29.90,7,0,7,0.00
2013-12-31,50.7,40.8,32.8,39.8,28.5,22.4,89,64,37,30.34,30.06,19,1,19,0.00
2014-1-1,49.2,38.7,28.6,34.4,28.7,22.4,91,68,44,30.37,30.10,12,0,12,0.00
2014-1-2,39.9,36.7,29.6,39.1,33.6,17.8,97,89,62,30.10,29.63,24,1,24,0.14